ADDS METAR Data INFO
IDs: Format: Raw Decoded Include TAF

Data at: 1144 UTC 25 Jun 2018

KGDJ 251135Z AUTO 00000KT 10SM SCT027 BKN050 OVC060 27/21 A3004 RMK AO2 T02740214
KGDJ 251115Z AUTO 35004KT 10SM SCT027 BKN040 OVC046 28/21 A3003 RMK AO2 T02750211
KGDJ 251055Z AUTO 32010KT 10SM SCT027 OVC035 27/21 A3003 RMK AO2 T02730211
KGDJ 251035Z AUTO 17007KT 130V200 10SM SCT028 OVC037 27/21 A2994 RMK AO2 T02720210
KGDJ 251015Z AUTO 16007KT 10SM BKN028 OVC035 27/21 A2993 RMK AO2 T02730210
KGDJ 250955Z AUTO 17011G16KT 10SM BKN028 OVC035 28/21 A2992 RMK AO2 T02750210
KGDJ 250935Z AUTO 17010G16KT 10SM OVC032 28/21 A2990 RMK AO2 T02760209
KGDJ 250915Z AUTO 15013G22KT 10SM OVC030 28/21 A2989 RMK AO2 T02760208
KGDJ 250855Z AUTO 17012G19KT 10SM OVC029 28/21 A2990 RMK AO2 T02750211
KGDJ 250835Z AUTO 16015G22KT 10SM OVC027 28/21 A2989 RMK AO2 T02750210
KGDJ 250815Z AUTO 15015G22KT 10SM SCT027 27/21 A2987 RMK AO2 T02730212
KGDJ 250755Z AUTO 15016G22KT 10SM CLR 28/21 A2986 RMK AO2 T02760211
KGDJ 250735Z AUTO 15016G21KT 10SM CLR 28/21 A2985 RMK AO2 T02780211
KGDJ 250715Z AUTO 15015G22KT 10SM CLR 28/21 A2985 RMK AO2 T02810211
KGDJ 250655Z AUTO 15017G27KT 10SM CLR 28/21 A2983 RMK AO2 T02840212
KGDJ 250635Z AUTO 14013G24KT 10SM CLR 29/22 A2984 RMK AO2 T02860216
KGDJ 250615Z AUTO 15014G25KT 10SM SCT029 29/22 A2984 RMK AO2 T02900218
KGDJ 250555Z AUTO 14009G26KT 10SM CLR 29/22 A2985 RMK AO2 T02920218 10371 20292 403910273
KGDJ 250535Z AUTO 15017G22KT 10SM CLR 30/22 A2985 RMK AO2 T02950215
KGDJ 250515Z AUTO 14016G23KT 10SM CLR 30/21 A2985 RMK AO2 T02990209
KGDJ 250455Z AUTO 14015G18KT 10SM CLR 30/20 A2985 RMK AO2 T03020201
KGDJ 250435Z AUTO 14017G25KT 10SM CLR 31/20 A2985 RMK AO2 T03070201
KGDJ 250415Z AUTO 14017G23KT 10SM CLR 31/20 A2985 RMK AO2 T03100201
KGDJ 250355Z AUTO 14014G20KT 10SM CLR 31/20 A2985 RMK AO2 T03140200
KGDJ 250335Z AUTO 14013G20KT 10SM CLR 32/20 A2985 RMK AO2 T03170195
KGDJ 250315Z AUTO 13014KT 10SM CLR 32/19 A2984 RMK AO2 T03210192
KGDJ 250255Z AUTO 14015G19KT 10SM CLR 33/19 A2983 RMK AO2 T03250190
KGDJ 250235Z AUTO 14015KT 10SM CLR 33/19 A2983 RMK AO2 T03280188
KGDJ 250215Z AUTO 14014G18KT 10SM CLR 33/19 A2983 RMK AO2 T03330186
KGDJ 250155Z AUTO 14013G22KT 10SM CLR 34/19 A2982 RMK AO2 T03360185
KGDJ 250135Z AUTO 13015G19KT 10SM CLR 34/18 A2983 RMK AO2 T03420182
KGDJ 250115Z AUTO 12015G22KT 10SM CLR 35/18 A2983 RMK AO2 T03470180
KGDJ 250055Z AUTO 13013KT 10SM SCT070 36/18 A2982 RMK AO2 T03550175
KGDJ 250035Z AUTO 13014G19KT 10SM SCT070 36/17 A2982 RMK AO2 T03620173
KGDJ 250015Z AUTO 14013G21KT 10SM SCT070 37/17 A2981 RMK AO2 T03660172
KGDJ 242355Z AUTO 13012G20KT 10SM SCT070 37/17 A2980 RMK AO2 T03710172 10391 20356
KGDJ 242335Z AUTO 12014KT 10SM CLR 37/17 A2980 RMK AO2 T03730173
KGDJ 242315Z AUTO 15018G22KT 10SM CLR 38/17 A2979 RMK AO2 T03780174
KGDJ 242255Z AUTO 14012G19KT 10SM CLR 38/18 A2977 RMK AO2 T03800175
KGDJ 242235Z AUTO 14016G24KT 10SM CLR 39/17 A2976 RMK AO2 T03850172
KGDJ 242215Z AUTO 14020G27KT 10SM CLR 38/17 A2976 RMK AO2 T03820174
KGDJ 242155Z AUTO 14019G26KT 10SM CLR 39/18 A2977 RMK AO2 T03880175
KGDJ 242135Z AUTO 16017G29KT 10SM CLR 39/17 A2976 RMK AO2 T03890171
KGDJ 242115Z AUTO 14020G27KT 10SM CLR 39/16 A2976 RMK AO2 T03900164
KGDJ 242055Z AUTO 15021G29KT 10SM CLR 39/17 A2976 RMK AO2 T03890165
KGDJ 242035Z AUTO 15015G21KT 10SM CLR 39/17 A2977 RMK AO2 T03900170
KGDJ 242015Z AUTO 15018G27KT 10SM CLR 38/17 A2977 RMK AO2 T03840172
KGDJ 241955Z AUTO 15016G25KT 10SM CLR 38/17 A2977 RMK AO2 T03830174
KGDJ 241935Z AUTO 15018G27KT 10SM CLR 38/18 A2979 RMK AO2 T03780175
KGDJ 241915Z AUTO 17013G23KT 10SM CLR 38/18 A2980 RMK AO2 T03790176
KGDJ 241855Z AUTO 15018G27KT 10SM CLR 37/18 A2981 RMK AO2 T03700182
KGDJ 241835Z AUTO 15013G22KT 10SM CLR 37/19 A2982 RMK AO2 T03660185
KGDJ 241815Z AUTO 14013G23KT 10SM CLR 36/18 A2983 RMK AO2 T03610184
KGDJ 241755Z AUTO 14016G21KT 10SM CLR 36/18 A2983 RMK AO2 T03570181 10357 20273
KGDJ 241735Z AUTO 16015G20KT 10SM CLR 35/18 A2984 RMK AO2 T03540184
KGDJ 241715Z AUTO 16018G21KT 10SM CLR 34/19 A2984 RMK AO2 T03440185
KGDJ 241655Z AUTO 14012G18KT 10SM CLR 34/19 A2985 RMK AO2 T03420188
KGDJ 241635Z AUTO 16016G23KT 10SM CLR 34/19 A2985 RMK AO2 T03380190
KGDJ 241615Z AUTO 17017G21KT 10SM SCT043 34/19 A2986 RMK AO2 T03350190
KGDJ 241555Z AUTO 15013G19KT 10SM SCT039 32/20 A2986 RMK AO2 T03240195
KGDJ 241535Z AUTO 15016G20KT 10SM SCT039 SCT045 32/20 A2986 RMK AO2 T03230198
KGDJ 241515Z AUTO 19010G21KT 10SM SCT039 31/20 A2986 RMK AO2 T03100198
KGDJ 241455Z AUTO 17013G18KT 10SM SCT035 SCT041 31/20 A2987 RMK AO2 T03110200
KGDJ 241435Z AUTO 16015G22KT 10SM SCT033 SCT039 30/20 A2985 RMK AO2 T03040201
KGDJ 241415Z AUTO 17012G18KT 10SM SCT033 30/20 A2986 RMK AO2 T03020203
KGDJ 241355Z AUTO 16014G20KT 10SM SCT031 30/21 A2985 RMK AO2 T02970205
KGDJ 241335Z AUTO 16014G18KT 10SM SCT029 SCT036 29/21 A2984 RMK AO2 T02890206
KGDJ 241315Z AUTO 16015G19KT 10SM CLR 29/21 A2984 RMK AO2 T02860205
KGDJ 241255Z AUTO 16012G26KT 120V200 10SM CLR 28/21 A2982 RMK AO2 T02800205
KGDJ 241235Z AUTO 16015G22KT 10SM CLR 28/20 A2980 RMK AO2 T02770203
KGDJ 241215Z AUTO 17016G26KT 10SM CLR 28/20 A2977 RMK AO2 T02750202
KGDJ 241155Z AUTO 17015G22KT 10SM CLR 28/20 A2978 RMK AO2 T02750202 10305 20275
KGDJ 241135Z AUTO 17012G22KT 10SM CLR 28/21 A2977 RMK AO2 T02750206
KGDJ 241115Z AUTO 18013G22KT 10SM CLR 28/21 A2976 RMK AO2 T02760212
KGDJ 241055Z AUTO 18013G26KT 10SM CLR 28/22 A2975 RMK AO2 T02770215
KGDJ 241035Z AUTO 18014G20KT 10SM CLR 28/22 A2974 RMK AO2 T02780219
KGDJ 241015Z AUTO 19017G28KT 10SM CLR 28/22 A2972 RMK AO2 T02800220
KGDJ 240955Z AUTO 18012G23KT 10SM CLR 28/22 A2972 RMK AO2 T02820216
KGDJ 240935Z AUTO 19019G35KT 10SM CLR 28/22 A2969 RMK AO2 T02840219
KGDJ 240915Z AUTO 15029G36KT 10SM CLR 28/22 A2963 RMK AO2 T02820221
KGDJ 240855Z AUTO 16028G35KT 10SM CLR 28/22 A2964 RMK AO2 T02830222
KGDJ 240835Z AUTO 15022G28KT 10SM CLR 28/22 A2967 RMK AO2 T02820223
KGDJ 240815Z AUTO 14016G26KT 10SM CLR 28/22 A2970 RMK AO2 T02820223
KGDJ 240755Z AUTO 14015G19KT 10SM CLR 28/22 A2972 RMK AO2 T02830223
KGDJ 240735Z AUTO 15020G26KT 10SM CLR 29/22 A2972 RMK AO2 T02860221
KGDJ 240715Z AUTO 15021G26KT 10SM CLR 29/22 A2972 RMK AO2 LTG DSNT SE T02850223
KGDJ 240655Z AUTO 14014G20KT 10SM TS CLR 28/22 A2977 RMK AO2 LTG DSNT NE THRU SE T02820223
KGDJ 240635Z AUTO 14017G24KT 10SM TS CLR 30/22 A2979 RMK AO2 LTG DSNT NE THRU S T02960218
KGDJ 240615Z AUTO 15016G22KT 10SM TS CLR 30/21 A2979 RMK AO2 LTG DSNT ALQS T03010214
KGDJ 240555Z AUTO 14016G22KT 10SM TS SCT075 31/21 A2980 RMK AO2 LTG DSNT ALQS T03050210 10370 20305 403850276
KGDJ 240535Z AUTO 15016G23KT 10SM TS SCT065 BKN075 31/21 A2980 RMK AO2 LTG DSNT ALQS T03090208
KGDJ 240515Z AUTO 15013G20KT 10SM BKN075 31/21 A2984 RMK AO2 LTG DSNT SW THRU NW T03110206
KGDJ 240455Z AUTO 16008KT 10SM CLR 31/21 A2985 RMK AO2 LTG DSNT SW T03120205
KGDJ 240435Z AUTO 14016G19KT 10SM CLR 31/21 A2979 RMK AO2 T03130205
KGDJ 240415Z AUTO 14016G21KT 10SM CLR 32/20 A2979 RMK AO2 LTG DSNT SW T03160203
KGDJ 240355Z AUTO 15016G19KT 10SM CLR 32/20 A2978 RMK AO2 T03180201
KGDJ 240335Z AUTO 14017G23KT 10SM CLR 32/20 A2975 RMK AO2 T03210198
KGDJ 240315Z AUTO 13015G20KT 10SM CLR 33/20 A2973 RMK AO2 LTG DSNT NW T03250197
KGDJ 240255Z AUTO 13010G18KT 10SM CLR 33/20 A2973 RMK AO2 T03280195
KGDJ 240235Z AUTO 13013G21KT 10SM CLR 33/19 A2973 RMK AO2 T03310192
KGDJ 240215Z AUTO 14014G20KT 10SM CLR 34/19 A2972 RMK AO2 T03350191
KGDJ 240155Z AUTO 13012G16KT 10SM CLR 34/19 A2972 RMK AO2 T03400190
KGDJ 240135Z AUTO 13013G18KT 10SM CLR 34/19 A2972 RMK AO2 T03440188
KGDJ 240115Z AUTO 13013G17KT 10SM CLR 35/19 A2971 RMK AO2 T03500185
KGDJ 240055Z AUTO 12014G18KT 10SM CLR 36/18 A2972 RMK AO2 T03590182
KGDJ 240035Z AUTO 13013G20KT 10SM CLR 36/18 A2972 RMK AO2 T03620180
KGDJ 240015Z AUTO 14015G20KT 10SM CLR 37/18 A2972 RMK AO2 T03660178
KGDJ 232355Z AUTO 14016G19KT 10SM CLR 37/18 A2971 RMK AO2 T03710178 10385 20338